Time,TemperatureF,DewpointF,PressureIn,WindDirection,WindDirectionDegrees,WindSpeedMPH,WindSpeedGustMPH,Humidity,HourlyPrecipIn,Conditions,Clouds,dailyrainin,SoftwareType,DateUTC
2013-10-31 00:01:00,37.6,36.0,30.21,West,270,0.0,0.0,94,0.00,,,0.02,meteohub,2013-10-31 04:01:00,
2013-10-31 00:02:00,37.6,36.0,30.21,West,270,0.0,0.0,94,0.00,,,0.02,meteohub,2013-10-31 04:02:00,
2013-10-31 00:05:00,37.6,36.0,30.21,West,270,0.0,0.0,94,0.00,,,0.00,meteohub,2013-10-31 04:05:00,
2013-10-31 00:06:00,37.6,36.0,30.21,West,270,0.0,0.0,94,0.00,,,0.00,meteohub,2013-10-31 04:06:00,
2013-10-31 00:11:00,37.9,36.3,30.21,West,270,0.0,0.0,94,0.00,,,0.00,meteohub,2013-10-31 04:11:00,
2013-10-31 00:16:00,37.9,36.3,30.22,West,270,0.0,0.0,94,0.00,,,0.00,meteohub,2013-10-31 04:16:00,
2013-10-31 00:21:00,37.9,36.3,30.22,West,270,0.0,0.0,94,0.00,,,0.00,meteohub,2013-10-31 04:21:00,
2013-10-31 00:26:00,37.9,36.3,30.22,West,270,0.0,0.0,94,0.00,,,0.00,meteohub,2013-10-31 04:26:00,
2013-10-31 00:31:00,37.9,36.3,30.22,West,270,0.0,0.0,94,0.00,,,0.00,meteohub,2013-10-31 04:31:00,
2013-10-31 00:36:00,37.9,36.3,30.21,West,270,0.0,0.0,94,0.00,,,0.00,meteohub,2013-10-31 04:36:00,
2013-10-31 00:42:00,37.8,36.1,30.21,West,270,0.0,0.0,94,0.00,,,0.00,meteohub,2013-10-31 04:42:00,
2013-10-31 00:47:00,37.8,36.1,30.21,West,270,0.0,0.0,94,0.00,,,0.00,meteohub,2013-10-31 04:47:00,
2013-10-31 00:52:00,37.8,36.1,30.21,West,270,0.0,0.0,94,0.00,,,0.00,meteohub,2013-10-31 04:52:00,
2013-10-31 00:57:00,37.6,36.0,30.21,West,270,0.0,0.0,94,0.00,,,0.00,meteohub,2013-10-31 04:57:00,
2013-10-31 01:02:00,37.4,35.8,30.21,West,270,0.0,0.0,94,0.00,,,0.00,meteohub,2013-10-31 05:02:00,
2013-10-31 01:07:00,37.2,34.5,30.21,West,270,0.0,0.0,90,0.00,,,0.00,meteohub,2013-10-31 05:07:00,
2013-10-31 01:12:00,37.0,34.3,30.21,West,270,0.0,0.0,90,0.00,,,0.00,meteohub,2013-10-31 05:12:00,
2013-10-31 01:17:00,37.0,34.3,30.21,West,270,0.0,0.0,90,0.00,,,0.00,meteohub,2013-10-31 05:17:00,
2013-10-31 01:22:00,36.9,34.2,30.21,West,270,0.0,0.0,90,0.00,,,0.00,meteohub,2013-10-31 05:22:00,
2013-10-31 01:27:00,36.9,34.5,30.21,West,270,0.0,0.0,91,0.00,,,0.00,meteohub,2013-10-31 05:27:00,
2013-10-31 01:32:00,36.9,34.5,30.21,West,270,0.0,0.0,91,0.00,,,0.00,meteohub,2013-10-31 05:32:00,
2013-10-31 01:37:00,36.9,34.5,30.21,West,270,0.0,0.0,91,0.00,,,0.00,meteohub,2013-10-31 05:37:00,
2013-10-31 01:42:00,36.7,34.3,30.21,West,270,0.0,0.0,91,0.00,,,0.00,meteohub,2013-10-31 05:42:00,
2013-10-31 01:47:00,36.9,34.5,30.21,West,270,0.0,0.0,91,0.00,,,0.00,meteohub,2013-10-31 05:47:00,
2013-10-31 01:52:00,36.9,34.5,30.21,West,270,0.0,0.0,91,0.00,,,0.00,meteohub,2013-10-31 05:52:00,
2013-10-31 01:57:00,37.0,34.7,30.21,West,270,0.0,0.0,91,0.00,,,0.00,meteohub,2013-10-31 05:57:00,
2013-10-31 02:02:00,37.2,34.9,30.21,West,270,0.0,0.0,91,0.00,,,0.00,meteohub,2013-10-31 06:02:00,
2013-10-31 02:07:00,37.2,34.9,30.21,West,270,0.0,0.0,91,0.00,,,0.00,meteohub,2013-10-31 06:07:00,
2013-10-31 02:12:00,37.2,34.9,30.20,West,270,0.0,0.0,91,0.00,,,0.00,meteohub,2013-10-31 06:12:00,
2013-10-31 02:17:00,37.0,34.7,30.20,West,270,0.0,0.0,91,0.00,,,0.00,meteohub,2013-10-31 06:17:00,
2013-10-31 02:22:00,36.9,34.5,30.20,West,270,0.0,0.0,91,0.00,,,0.00,meteohub,2013-10-31 06:22:00,
2013-10-31 02:27:00,36.7,34.3,30.20,West,270,0.0,0.0,91,0.00,,,0.00,meteohub,2013-10-31 06:27:00,
2013-10-31 02:32:00,36.5,34.2,30.20,West,270,0.0,0.0,91,0.00,,,0.00,meteohub,2013-10-31 06:32:00,
2013-10-31 02:37:00,36.5,34.2,30.19,West,270,0.0,0.0,91,0.00,,,0.00,meteohub,2013-10-31 06:37:00,
2013-10-31 02:42:00,36.3,34.0,30.19,West,270,0.0,0.0,91,0.00,,,0.00,meteohub,2013-10-31 06:42:00,
2013-10-31 02:47:00,36.3,34.0,30.19,West,270,0.0,0.0,91,0.00,,,0.00,meteohub,2013-10-31 06:47:00,
2013-10-31 02:52:00,36.3,34.0,30.19,West,270,0.0,0.0,91,0.00,,,0.00,meteohub,2013-10-31 06:52:00,
2013-10-31 02:57:00,36.1,33.8,30.19,West,270,0.0,0.0,91,0.00,,,0.00,meteohub,2013-10-31 06:57:00,
2013-10-31 03:03:00,36.3,34.0,30.19,West,270,0.0,0.0,91,0.00,,,0.00,meteohub,2013-10-31 07:03:00,
2013-10-31 03:08:00,36.5,34.2,30.19,West,270,0.0,0.0,91,0.00,,,0.00,meteohub,2013-10-31 07:08:00,
2013-10-31 03:13:00,36.7,34.3,30.19,West,270,0.0,0.0,91,0.00,,,0.00,meteohub,2013-10-31 07:13:00,
2013-10-31 03:18:00,36.5,34.2,30.19,West,270,0.0,0.0,91,0.00,,,0.00,meteohub,2013-10-31 07:18:00,
2013-10-31 03:23:00,36.5,34.2,30.19,West,270,0.0,0.0,91,0.00,,,0.00,meteohub,2013-10-31 07:23:00,
2013-10-31 03:28:00,36.3,34.0,30.19,West,270,0.0,0.0,91,0.00,,,0.00,meteohub,2013-10-31 07:28:00,
2013-10-31 03:33:00,36.1,33.8,30.19,West,270,0.0,0.0,91,0.00,,,0.00,meteohub,2013-10-31 07:33:00,
2013-10-31 03:38:00,36.1,33.8,30.19,West,270,0.0,0.0,91,0.00,,,0.00,meteohub,2013-10-31 07:38:00,
2013-10-31 03:43:00,36.1,33.8,30.20,West,270,0.0,0.0,91,0.00,,,0.00,meteohub,2013-10-31 07:43:00,
2013-10-31 03:48:00,36.1,33.8,30.19,West,270,0.0,0.0,91,0.00,,,0.00,meteohub,2013-10-31 07:48:00,
2013-10-31 03:53:00,36.1,33.8,30.19,West,270,0.0,0.0,91,0.00,,,0.00,meteohub,2013-10-31 07:53:00,
2013-10-31 03:58:00,36.1,33.8,30.19,West,270,0.0,0.0,91,0.00,,,0.00,meteohub,2013-10-31 07:58:00,
2013-10-31 04:03:00,36.1,33.8,30.19,West,270,0.0,0.0,91,0.00,,,0.00,meteohub,2013-10-31 08:03:00,
2013-10-31 04:08:00,36.0,33.6,30.19,West,270,0.0,0.0,91,0.00,,,0.00,meteohub,2013-10-31 08:08:00,
2013-10-31 04:13:00,36.0,33.6,30.19,West,270,0.0,0.0,91,0.00,,,0.00,meteohub,2013-10-31 08:13:00,
2013-10-31 04:19:00,36.0,33.6,30.19,South,180,0.0,0.0,91,0.00,,,0.00,meteohub,2013-10-31 08:19:00,
2013-10-31 04:24:00,36.0,33.6,30.19,South,180,0.0,0.0,91,0.00,,,0.00,meteohub,2013-10-31 08:24:00,
2013-10-31 04:29:00,35.8,33.4,30.18,South,180,0.0,0.0,91,0.00,,,0.00,meteohub,2013-10-31 08:29:00,
2013-10-31 04:34:00,36.0,33.6,30.18,South,180,0.0,0.0,91,0.00,,,0.00,meteohub,2013-10-31 08:34:00,
2013-10-31 04:39:00,36.0,33.6,30.18,South,180,0.0,0.0,91,0.00,,,0.00,meteohub,2013-10-31 08:39:00,
2013-10-31 04:44:00,36.0,33.6,30.17,South,180,0.0,0.0,91,0.00,,,0.00,meteohub,2013-10-31 08:44:00,
2013-10-31 04:49:00,36.1,34.0,30.18,South,180,0.0,0.0,92,0.00,,,0.00,meteohub,2013-10-31 08:49:00,
2013-10-31 04:54:00,36.1,34.0,30.18,South,180,0.0,0.0,92,0.00,,,0.00,meteohub,2013-10-31 08:54:00,
2013-10-31 04:59:00,36.1,34.0,30.17,South,180,0.0,0.0,92,0.00,,,0.00,meteohub,2013-10-31 08:59:00,
2013-10-31 05:04:00,36.3,34.2,30.17,South,180,0.0,0.0,92,0.00,,,0.00,meteohub,2013-10-31 09:04:00,
2013-10-31 05:09:00,36.5,34.3,30.17,South,180,0.0,0.0,92,0.00,,,0.00,meteohub,2013-10-31 09:09:00,
2013-10-31 05:14:00,36.7,34.5,30.17,South,180,0.0,0.0,92,0.00,,,0.00,meteohub,2013-10-31 09:14:00,
2013-10-31 05:19:00,37.0,34.9,30.17,South,180,0.0,0.0,92,0.00,,,0.00,meteohub,2013-10-31 09:19:00,
2013-10-31 05:24:00,37.2,35.1,30.17,South,180,0.0,0.0,92,0.00,,,0.00,meteohub,2013-10-31 09:24:00,
2013-10-31 05:30:00,37.4,36.7,30.17,South,180,0.0,0.0,97,0.00,,,0.00,meteohub,2013-10-31 09:30:00,
2013-10-31 05:35:00,37.6,36.9,30.17,South,180,0.0,0.0,97,0.00,,,0.00,meteohub,2013-10-31 09:35:00,
2013-10-31 05:40:00,37.6,36.9,30.17,NW,315,0.0,0.0,97,0.00,,,0.00,meteohub,2013-10-31 09:40:00,
2013-10-31 05:45:00,37.8,37.0,30.17,West,270,1.0,1.0,97,0.00,,,0.00,meteohub,2013-10-31 09:45:00,
2013-10-31 05:50:00,37.9,37.2,30.17,West,270,0.0,2.0,97,0.00,,,0.00,meteohub,2013-10-31 09:50:00,
2013-10-31 05:55:00,37.9,37.2,30.18,West,270,0.0,2.0,97,0.00,,,0.00,meteohub,2013-10-31 09:55:00,
2013-10-31 06:00:00,37.9,37.2,30.18,West,270,0.0,2.0,97,0.00,,,0.00,meteohub,2013-10-31 10:00:00,
2013-10-31 06:05:00,37.9,37.2,30.18,West,270,0.0,2.0,97,0.00,,,0.00,meteohub,2013-10-31 10:05:00,
2013-10-31 06:10:00,38.1,37.6,30.18,West,270,0.0,1.0,98,0.00,,,0.00,meteohub,2013-10-31 10:10:00,
2013-10-31 06:15:00,38.3,37.8,30.17,West,270,0.0,0.0,98,0.00,,,0.00,meteohub,2013-10-31 10:15:00,
2013-10-31 06:21:00,38.3,37.8,30.17,West,270,0.0,0.0,98,0.00,,,0.00,meteohub,2013-10-31 10:21:00,
2013-10-31 06:26:00,38.3,37.8,30.17,NW,315,0.0,0.0,98,0.00,,,0.00,meteohub,2013-10-31 10:26:00,
2013-10-31 06:31:00,38.1,37.6,30.17,NW,315,0.0,0.0,98,0.00,,,0.00,meteohub,2013-10-31 10:31:00,
2013-10-31 06:36:00,38.3,37.8,30.16,West,270,0.0,0.0,98,0.00,,,0.00,meteohub,2013-10-31 10:36:00,
2013-10-31 06:41:00,38.3,37.8,30.17,West,270,0.0,0.0,98,0.00,,,0.00,meteohub,2013-10-31 10:41:00,
2013-10-31 06:46:00,38.5,37.9,30.17,NW,315,0.0,0.0,98,0.00,,,0.00,meteohub,2013-10-31 10:46:00,
2013-10-31 06:51:00,38.5,37.9,30.17,NW,315,0.0,0.0,98,0.00,,,0.00,meteohub,2013-10-31 10:51:00,
2013-10-31 06:56:00,38.5,37.9,30.17,West,270,0.0,0.0,98,0.00,,,0.00,meteohub,2013-10-31 10:56:00,
2013-10-31 07:01:00,38.5,37.9,30.17,NW,315,0.0,1.0,98,0.00,,,0.00,meteohub,2013-10-31 11:01:00,
2013-10-31 07:06:00,38.5,37.9,30.17,NW,315,0.0,1.0,98,0.00,,,0.00,meteohub,2013-10-31 11:06:00,
2013-10-31 07:11:00,38.5,37.9,30.17,NW,315,0.0,1.0,98,0.00,,,0.00,meteohub,2013-10-31 11:11:00,
2013-10-31 07:16:00,38.5,37.9,30.17,West,270,0.0,0.0,98,0.00,,,0.00,meteohub,2013-10-31 11:16:00,
2013-10-31 07:21:00,38.5,38.3,30.17,West,270,0.0,0.0,99,0.00,,,0.00,meteohub,2013-10-31 11:21:00,
2013-10-31 07:27:00,38.5,38.3,30.17,West,270,0.0,0.0,99,0.00,,,0.00,meteohub,2013-10-31 11:27:00,
2013-10-31 07:32:00,38.7,38.5,30.17,West,270,0.0,0.0,99,0.00,,,0.00,meteohub,2013-10-31 11:32:00,
2013-10-31 07:37:00,38.8,38.7,30.17,NW,315,0.0,0.0,99,0.00,,,0.00,meteohub,2013-10-31 11:37:00,
2013-10-31 07:42:00,39.0,38.8,30.18,NW,315,0.0,0.0,99,0.00,,,0.00,meteohub,2013-10-31 11:42:00,
2013-10-31 07:47:00,39.2,38.7,30.18,NW,315,0.0,0.0,98,0.00,,,0.00,meteohub,2013-10-31 11:47:00,
2013-10-31 07:52:00,39.4,38.8,30.18,NW,315,0.0,0.0,98,0.00,,,0.00,meteohub,2013-10-31 11:52:00,
2013-10-31 07:57:00,39.6,39.0,30.18,NW,315,0.0,0.0,98,0.00,,,0.00,meteohub,2013-10-31 11:57:00,
2013-10-31 08:02:00,39.7,39.2,30.18,NW,315,0.0,0.0,98,0.00,,,0.00,meteohub,2013-10-31 12:02:00,
2013-10-31 08:07:00,40.1,39.6,30.18,NW,315,0.0,0.0,98,0.00,,,0.00,meteohub,2013-10-31 12:07:00,
2013-10-31 08:12:00,40.3,40.1,30.19,NW,315,0.0,0.0,99,0.00,,,0.00,meteohub,2013-10-31 12:12:00,
2013-10-31 08:17:00,40.6,40.5,30.18,NW,315,0.0,0.0,99,0.00,,,0.00,meteohub,2013-10-31 12:17:00,
2013-10-31 08:22:00,40.8,40.6,30.18,NW,315,0.0,0.0,99,0.00,,,0.00,meteohub,2013-10-31 12:22:00,
2013-10-31 08:27:00,40.8,40.6,30.18,NW,315,0.0,0.0,99,0.00,,,0.00,meteohub,2013-10-31 12:27:00,
2013-10-31 08:32:00,41.0,40.5,30.18,NW,315,0.0,0.0,98,0.00,,,0.00,meteohub,2013-10-31 12:32:00,
2013-10-31 08:37:00,41.2,40.6,30.19,NW,315,0.0,0.0,98,0.00,,,0.00,meteohub,2013-10-31 12:37:00,
2013-10-31 08:42:00,41.5,41.0,30.18,NW,315,0.0,0.0,98,0.00,,,0.00,meteohub,2013-10-31 12:42:00,
2013-10-31 08:47:00,41.7,41.5,30.19,South,180,0.0,0.0,99,0.00,,,0.00,meteohub,2013-10-31 12:47:00,
2013-10-31 08:52:00,42.1,41.9,30.19,South,180,0.0,0.0,99,0.00,,,0.00,meteohub,2013-10-31 12:52:00,
2013-10-31 08:57:00,42.4,42.3,30.19,South,180,0.0,0.0,99,0.00,,,0.00,meteohub,2013-10-31 12:57:00,
2013-10-31 09:02:00,43.0,42.4,30.18,South,180,0.0,0.0,98,0.00,,,0.00,meteohub,2013-10-31 13:02:00,
2013-10-31 09:07:00,43.5,43.0,30.19,SE,135,0.0,0.0,98,0.00,,,0.00,meteohub,2013-10-31 13:07:00,
2013-10-31 09:12:00,44.2,43.7,30.19,SE,135,0.0,0.0,98,0.00,,,0.00,meteohub,2013-10-31 13:12:00,
2013-10-31 09:17:00,44.8,44.1,30.19,WNW,293,1.0,0.0,97,0.00,,,0.00,meteohub,2013-10-31 13:17:00,
2013-10-31 09:22:00,45.1,44.4,30.18,West,270,2.0,2.0,97,0.00,,,0.00,meteohub,2013-10-31 13:22:00,
2013-10-31 09:27:00,45.7,45.0,30.18,WNW,293,2.0,2.0,97,0.00,,,0.00,meteohub,2013-10-31 13:27:00,
2013-10-31 09:32:00,45.9,45.1,30.17,South,180,2.0,2.0,97,0.00,,,0.00,meteohub,2013-10-31 13:32:00,
2013-10-31 09:37:00,46.2,45.5,30.17,WNW,293,2.0,2.0,97,0.00,,,0.00,meteohub,2013-10-31 13:37:00,
2013-10-31 09:42:00,46.6,45.5,30.17,West,270,2.0,2.0,96,0.00,,,0.00,meteohub,2013-10-31 13:42:00,
2013-10-31 09:47:00,47.1,46.0,30.17,WNW,293,2.0,2.0,96,0.00,,,0.00,meteohub,2013-10-31 13:47:00,
2013-10-31 09:52:00,47.5,46.4,30.17,West,270,2.0,2.0,96,0.00,,,0.00,meteohub,2013-10-31 13:52:00,
2013-10-31 09:57:00,48.0,46.9,30.17,WNW,293,2.0,2.0,96,0.00,,,0.00,meteohub,2013-10-31 13:57:00,
2013-10-31 10:02:00,48.2,46.8,30.15,WNW,293,0.0,2.0,95,0.00,,,0.00,meteohub,2013-10-31 14:02:00,
2013-10-31 10:07:00,48.4,46.9,30.15,WNW,293,2.0,2.0,95,0.00,,,0.00,meteohub,2013-10-31 14:07:00,
2013-10-31 10:12:00,48.6,46.9,30.15,WNW,293,2.0,4.0,94,0.00,,,0.00,meteohub,2013-10-31 14:12:00,
2013-10-31 10:17:00,48.7,47.1,30.15,WNW,293,2.0,4.0,94,0.00,,,0.00,meteohub,2013-10-31 14:17:00,
2013-10-31 10:22:00,49.1,47.5,30.15,West,270,2.0,4.0,94,0.00,,,0.00,meteohub,2013-10-31 14:22:00,
2013-10-31 10:27:00,49.5,47.8,30.15,WNW,293,2.0,3.0,94,0.00,,,0.00,meteohub,2013-10-31 14:27:00,
2013-10-31 10:32:00,49.8,48.2,30.14,WNW,293,1.0,3.0,94,0.00,,,0.00,meteohub,2013-10-31 14:32:00,
2013-10-31 10:37:00,50.0,48.0,30.15,West,270,1.0,3.0,93,0.00,,,0.00,meteohub,2013-10-31 14:37:00,
2013-10-31 10:42:00,50.2,48.2,30.14,West,270,2.0,3.0,93,0.00,,,0.00,meteohub,2013-10-31 14:42:00,
2013-10-31 10:47:00,50.4,48.4,30.14,South,180,2.0,3.0,93,0.00,,,0.00,meteohub,2013-10-31 14:47:00,
2013-10-31 10:52:00,50.5,48.6,30.14,WNW,293,1.0,3.0,93,0.00,,,0.00,meteohub,2013-10-31 14:52:00,
2013-10-31 10:57:00,50.9,48.9,30.14,South,180,2.0,4.0,93,0.00,,,0.00,meteohub,2013-10-31 14:57:00,
2013-10-31 11:02:00,51.1,49.1,30.14,WNW,293,2.0,4.0,93,0.00,,,0.00,meteohub,2013-10-31 15:02:00,
2013-10-31 11:08:00,51.4,49.5,30.14,West,270,1.0,2.0,93,0.00,,,0.00,meteohub,2013-10-31 15:08:00,
2013-10-31 11:13:00,51.6,49.6,30.14,West,270,2.0,2.0,93,0.00,,,0.00,meteohub,2013-10-31 15:13:00,
2013-10-31 11:18:00,51.8,49.3,30.13,West,270,3.0,3.0,91,0.00,,,0.00,meteohub,2013-10-31 15:18:00,
2013-10-31 11:23:00,52.0,49.5,30.12,South,180,2.0,4.0,91,0.00,,,0.00,meteohub,2013-10-31 15:23:00,
2013-10-31 11:28:00,52.3,49.8,30.13,NW,315,2.0,4.0,91,0.00,,,0.00,meteohub,2013-10-31 15:28:00,
2013-10-31 11:33:00,53.1,50.5,30.12,South,180,3.0,4.0,91,0.00,,,0.00,meteohub,2013-10-31 15:33:00,
2013-10-31 11:38:00,54.0,51.1,30.12,WNW,293,3.0,4.0,90,0.00,,,0.00,meteohub,2013-10-31 15:38:00,
2013-10-31 11:43:00,55.0,52.2,30.12,South,180,3.0,4.0,90,0.00,,,0.00,meteohub,2013-10-31 15:43:00,
2013-10-31 11:48:00,55.8,52.3,30.11,West,270,2.0,4.0,88,0.00,,,0.00,meteohub,2013-10-31 15:48:00,
2013-10-31 11:53:00,56.1,52.3,30.12,NW,315,2.0,4.0,87,0.00,,,0.00,meteohub,2013-10-31 15:53:00,
2013-10-31 11:58:00,56.3,52.5,30.12,West,270,2.0,4.0,87,0.00,,,0.00,meteohub,2013-10-31 15:58:00,
2013-10-31 12:03:00,56.3,52.5,30.11,South,180,2.0,4.0,87,0.00,,,0.00,meteohub,2013-10-31 16:03:00,
2013-10-31 12:08:00,56.3,52.5,30.11,NW,315,3.0,4.0,87,0.00,,,0.00,meteohub,2013-10-31 16:08:00,
2013-10-31 12:13:00,56.3,52.9,30.10,WNW,293,2.0,3.0,88,0.00,,,0.00,meteohub,2013-10-31 16:13:00,
2013-10-31 12:19:00,56.5,52.9,30.10,West,270,3.0,4.0,88,0.00,,,0.00,meteohub,2013-10-31 16:19:00,
2013-10-31 12:24:00,56.7,53.4,30.10,West,270,2.0,4.0,89,0.00,,,0.00,meteohub,2013-10-31 16:24:00,
2013-10-31 12:29:00,57.0,53.8,30.09,WNW,293,2.0,4.0,89,0.00,,,0.00,meteohub,2013-10-31 16:29:00,
2013-10-31 12:34:00,57.0,53.8,30.08,West,270,2.0,4.0,89,0.00,,,0.00,meteohub,2013-10-31 16:34:00,
2013-10-31 12:39:00,57.4,53.6,30.08,South,180,2.0,5.0,87,0.00,,,0.00,meteohub,2013-10-31 16:39:00,
2013-10-31 12:44:00,57.9,54.1,30.07,West,270,2.0,5.0,87,0.00,,,0.00,meteohub,2013-10-31 16:44:00,
2013-10-31 12:49:00,58.1,54.3,30.07,West,270,3.0,5.0,87,0.00,,,0.00,meteohub,2013-10-31 16:49:00,
2013-10-31 12:54:00,58.3,54.1,30.07,South,180,2.0,5.0,86,0.00,,,0.00,meteohub,2013-10-31 16:54:00,
2013-10-31 12:59:00,58.3,54.1,30.06,NW,315,5.0,5.0,86,0.00,,,0.00,meteohub,2013-10-31 16:59:00,
2013-10-31 13:04:00,58.5,54.0,30.06,South,180,1.0,6.0,85,0.00,,,0.00,meteohub,2013-10-31 17:04:00,
2013-10-31 13:09:00,58.6,54.1,30.06,NW,315,2.0,6.0,85,0.00,,,0.00,meteohub,2013-10-31 17:09:00,
2013-10-31 13:15:00,58.6,54.1,30.06,West,270,6.0,6.0,85,0.00,,,0.00,meteohub,2013-10-31 17:15:00,
2013-10-31 13:20:00,58.6,54.1,30.06,North,0,1.0,5.0,85,0.00,,,0.00,meteohub,2013-10-31 17:20:00,
2013-10-31 13:25:00,58.8,54.3,30.06,NW,315,2.0,6.0,85,0.00,,,0.00,meteohub,2013-10-31 17:25:00,
2013-10-31 13:30:00,58.8,54.0,30.05,South,180,3.0,6.0,84,0.00,,,0.00,meteohub,2013-10-31 17:30:00,
2013-10-31 13:35:00,59.0,53.8,30.05,South,180,2.0,4.0,83,0.00,,,0.00,meteohub,2013-10-31 17:35:00,
2013-10-31 13:40:00,59.0,53.8,30.04,NW,315,3.0,3.0,83,0.00,,,0.00,meteohub,2013-10-31 17:40:00,
2013-10-31 13:45:00,59.2,54.0,30.04,South,180,3.0,4.0,83,0.00,,,0.00,meteohub,2013-10-31 17:45:00,
2013-10-31 13:50:00,59.5,54.3,30.03,West,270,4.0,4.0,83,0.00,,,0.00,meteohub,2013-10-31 17:50:00,
2013-10-31 13:55:00,59.7,54.1,30.03,West,270,4.0,4.0,82,0.00,,,0.00,meteohub,2013-10-31 17:55:00,
2013-10-31 14:00:00,59.9,54.3,30.02,West,270,1.0,4.0,82,0.00,,,0.00,meteohub,2013-10-31 18:00:00,
2013-10-31 14:05:00,60.1,54.5,30.02,West,270,3.0,4.0,82,0.00,,,0.00,meteohub,2013-10-31 18:05:00,
2013-10-31 14:10:00,60.1,54.3,30.01,South,180,4.0,5.0,81,0.00,,,0.00,meteohub,2013-10-31 18:10:00,
2013-10-31 14:15:00,60.3,54.3,30.01,NW,315,3.0,5.0,81,0.00,,,0.00,meteohub,2013-10-31 18:15:00,
2013-10-31 14:20:00,60.4,54.3,30.01,West,270,3.0,6.0,80,0.00,,,0.00,meteohub,2013-10-31 18:20:00,
2013-10-31 14:25:00,60.4,54.3,30.00,NW,315,4.0,6.0,80,0.00,,,0.00,meteohub,2013-10-31 18:25:00,
2013-10-31 14:31:00,60.8,54.3,30.01,NW,315,4.0,10.0,79,0.00,,,0.00,meteohub,2013-10-31 18:31:00,
2013-10-31 14:36:00,61.0,54.1,30.01,NW,315,2.0,10.0,78,0.00,,,0.00,meteohub,2013-10-31 18:36:00,
2013-10-31 14:41:00,61.2,54.3,30.00,South,180,3.0,10.0,78,0.00,,,0.00,meteohub,2013-10-31 18:41:00,
2013-10-31 14:46:00,61.2,54.0,30.00,West,270,3.0,6.0,77,0.00,,,0.00,meteohub,2013-10-31 18:46:00,
2013-10-31 14:51:00,61.2,54.0,29.99,South,180,3.0,6.0,77,0.00,,,0.00,meteohub,2013-10-31 18:51:00,
2013-10-31 14:56:00,61.2,54.0,29.98,NW,315,2.0,8.0,77,0.00,,,0.00,meteohub,2013-10-31 18:56:00,
2013-10-31 15:01:00,61.2,54.3,29.99,West,270,2.0,8.0,78,0.00,,,0.00,meteohub,2013-10-31 19:01:00,
2013-10-31 15:06:00,61.2,54.3,29.99,South,180,4.0,8.0,78,0.00,,,0.00,meteohub,2013-10-31 19:06:00,
2013-10-31 15:11:00,61.2,54.7,29.99,West,270,4.0,7.0,79,0.00,,,0.00,meteohub,2013-10-31 19:11:00,
2013-10-31 15:16:00,61.2,54.7,29.99,NW,315,1.0,7.0,79,0.00,,,0.00,meteohub,2013-10-31 19:16:00,
2013-10-31 15:21:00,61.2,54.7,29.99,NW,315,2.0,5.0,79,0.00,,,0.00,meteohub,2013-10-31 19:21:00,
2013-10-31 15:26:00,61.2,54.7,29.99,NW,315,3.0,5.0,79,0.00,,,0.00,meteohub,2013-10-31 19:26:00,
2013-10-31 15:31:00,61.2,54.9,29.99,West,270,3.0,4.0,80,0.00,,,0.00,meteohub,2013-10-31 19:31:00,
2013-10-31 15:36:00,61.2,54.9,29.99,West,270,4.0,4.0,80,0.00,,,0.00,meteohub,2013-10-31 19:36:00,
2013-10-31 15:42:00,61.0,55.4,29.99,NW,315,2.0,4.0,82,0.00,,,0.00,meteohub,2013-10-31 19:42:00,
2013-10-31 15:47:00,60.4,55.6,29.98,West,270,2.0,4.0,84,0.00,,,0.00,meteohub,2013-10-31 19:47:00,
2013-10-31 15:52:00,60.3,55.8,29.99,WNW,293,2.0,4.0,85,0.00,,,0.00,meteohub,2013-10-31 19:52:00,
2013-10-31 15:57:00,60.3,56.1,29.98,NW,315,2.0,4.0,86,0.00,,,0.00,meteohub,2013-10-31 19:57:00,
2013-10-31 16:02:00,60.3,56.3,29.98,NW,315,1.0,4.0,87,0.00,,,0.00,meteohub,2013-10-31 20:02:00,
2013-10-31 16:07:00,60.1,56.1,29.98,West,270,2.0,4.0,87,0.00,,,0.00,meteohub,2013-10-31 20:07:00,
2013-10-31 16:12:00,60.1,56.5,29.98,NW,315,2.0,5.0,88,0.00,,,0.00,meteohub,2013-10-31 20:12:00,
2013-10-31 16:17:00,60.1,56.5,29.98,NW,315,0.0,5.0,88,0.00,,,0.00,meteohub,2013-10-31 20:17:00,
2013-10-31 16:22:00,60.1,56.5,29.97,NW,315,2.0,5.0,88,0.00,,,0.00,meteohub,2013-10-31 20:22:00,
2013-10-31 16:27:00,60.3,56.7,29.97,West,270,0.0,3.0,88,0.00,,,0.00,meteohub,2013-10-31 20:27:00,
2013-10-31 16:32:00,60.3,56.7,29.97,NW,315,1.0,2.0,88,0.00,,,0.00,meteohub,2013-10-31 20:32:00,
2013-10-31 16:37:00,60.1,56.8,29.96,West,270,1.0,2.0,89,0.00,,,0.00,meteohub,2013-10-31 20:37:00,
2013-10-31 16:42:00,60.3,57.0,29.96,West,270,1.0,2.0,89,0.00,,,0.00,meteohub,2013-10-31 20:42:00,
2013-10-31 16:47:00,60.3,57.0,29.96,NW,315,2.0,2.0,89,0.00,,,0.00,meteohub,2013-10-31 20:47:00,
2013-10-31 16:52:00,60.4,57.2,29.95,West,270,3.0,3.0,89,0.00,,,0.00,meteohub,2013-10-31 20:52:00,
2013-10-31 16:58:00,60.6,57.4,29.96,NW,315,2.0,3.0,89,0.00,,,0.00,meteohub,2013-10-31 20:58:00,
2013-10-31 17:03:00,60.8,57.2,29.95,NW,315,1.0,3.0,88,0.00,,,0.00,meteohub,2013-10-31 21:03:00,
2013-10-31 17:08:00,60.8,57.6,29.95,West,270,2.0,4.0,89,0.00,,,0.00,meteohub,2013-10-31 21:08:00,
2013-10-31 17:13:00,60.8,57.6,29.94,West,270,5.0,5.0,89,0.00,,,0.00,meteohub,2013-10-31 21:13:00,
2013-10-31 17:18:00,60.6,57.7,29.94,NW,315,2.0,4.0,90,0.00,,,0.00,meteohub,2013-10-31 21:18:00,
2013-10-31 17:23:00,60.6,57.9,29.94,West,270,3.0,5.0,91,0.00,,,0.00,meteohub,2013-10-31 21:23:00,
2013-10-31 17:28:00,60.8,57.9,29.94,West,270,1.0,5.0,90,0.00,,,0.00,meteohub,2013-10-31 21:28:00,
2013-10-31 17:33:00,60.6,58.3,29.94,West,270,1.0,3.0,92,0.00,,,0.00,meteohub,2013-10-31 21:33:00,
2013-10-31 17:39:00,60.6,58.3,29.94,West,270,1.0,3.0,92,0.00,,,0.00,meteohub,2013-10-31 21:39:00,
2013-10-31 17:44:00,60.8,58.1,29.93,South,180,2.0,4.0,91,0.00,,,0.00,meteohub,2013-10-31 21:44:00,
2013-10-31 17:49:00,60.8,58.1,29.93,West,270,4.0,4.0,91,0.00,,,0.00,meteohub,2013-10-31 21:49:00,
2013-10-31 17:54:00,61.0,58.3,29.93,West,270,3.0,4.0,91,0.00,,,0.00,meteohub,2013-10-31 21:54:00,
2013-10-31 17:59:00,61.0,58.3,29.93,NW,315,3.0,4.0,91,0.00,,,0.00,meteohub,2013-10-31 21:59:00,
2013-10-31 18:04:00,61.2,58.5,29.93,South,180,2.0,4.0,91,0.00,,,0.00,meteohub,2013-10-31 22:04:00,
2013-10-31 18:09:00,61.3,58.6,29.93,West,270,2.0,5.0,91,0.00,,,0.00,meteohub,2013-10-31 22:09:00,
2013-10-31 18:14:00,61.3,58.6,29.93,NW,315,3.0,5.0,91,0.00,,,0.00,meteohub,2013-10-31 22:14:00,
2013-10-31 18:19:00,61.5,58.8,29.92,South,180,2.0,5.0,91,0.00,,,0.00,meteohub,2013-10-31 22:19:00,
2013-10-31 18:24:00,61.7,59.0,29.93,West,270,2.0,6.0,91,0.01,,,0.01,meteohub,2013-10-31 22:24:00,
2013-10-31 18:29:00,61.7,58.8,29.92,North,0,4.0,6.0,90,0.01,,,0.01,meteohub,2013-10-31 22:29:00,
2013-10-31 18:34:00,61.9,59.0,29.92,NW,315,2.0,6.0,90,0.01,,,0.01,meteohub,2013-10-31 22:34:00,
2013-10-31 18:39:00,61.9,59.0,29.92,NW,315,5.0,5.0,90,0.01,,,0.01,meteohub,2013-10-31 22:39:00,
2013-10-31 18:45:00,62.1,59.2,29.91,West,270,4.0,5.0,90,0.01,,,0.01,meteohub,2013-10-31 22:45:00,
2013-10-31 18:50:00,62.2,59.0,29.92,South,180,2.0,5.0,89,0.01,,,0.01,meteohub,2013-10-31 22:50:00,
2013-10-31 18:55:00,62.2,59.0,29.91,NW,315,3.0,7.0,89,0.01,,,0.01,meteohub,2013-10-31 22:55:00,
2013-10-31 19:00:00,62.2,58.6,29.91,NW,315,4.0,7.0,88,0.01,,,0.01,meteohub,2013-10-31 23:00:00,
2013-10-31 19:05:00,62.4,58.8,29.92,West,270,2.0,8.0,88,0.01,,,0.01,meteohub,2013-10-31 23:05:00,
2013-10-31 19:10:00,62.4,58.5,29.91,West,270,5.0,9.0,87,0.01,,,0.01,meteohub,2013-10-31 23:10:00,
2013-10-31 19:15:00,62.6,58.3,29.92,NW,315,4.0,9.0,86,0.01,,,0.01,meteohub,2013-10-31 23:15:00,
2013-10-31 19:20:00,62.6,58.3,29.92,NW,315,4.0,9.0,86,0.00,,,0.01,meteohub,2013-10-31 23:20:00,
2013-10-31 19:25:00,62.6,58.3,29.91,NW,315,4.0,5.0,86,0.00,,,0.01,meteohub,2013-10-31 23:25:00,
2013-10-31 19:30:00,62.8,58.3,29.91,NW,315,4.0,6.0,85,0.00,,,0.01,meteohub,2013-10-31 23:30:00,
2013-10-31 19:35:00,62.8,58.3,29.91,NW,315,3.0,6.0,85,0.00,,,0.01,meteohub,2013-10-31 23:35:00,
2013-10-31 19:41:00,62.8,58.3,29.91,West,270,4.0,8.0,85,0.00,,,0.01,meteohub,2013-10-31 23:41:00,
2013-10-31 19:46:00,63.0,58.5,29.90,NW,315,2.0,8.0,85,0.00,,,0.01,meteohub,2013-10-31 23:46:00,
2013-10-31 19:51:00,62.8,58.3,29.90,West,270,2.0,8.0,85,0.00,,,0.01,meteohub,2013-10-31 23:51:00,
2013-10-31 19:56:00,62.8,58.3,29.90,West,270,4.0,5.0,85,0.00,,,0.01,meteohub,2013-10-31 23:56:00,
2013-10-31 20:01:00,62.8,57.9,29.90,West,270,2.0,5.0,84,0.00,,,0.01,meteohub,2013-11-01 00:01:00,
2013-10-31 20:06:00,63.0,58.1,29.89,West,270,2.0,5.0,84,0.00,,,0.01,meteohub,2013-11-01 00:06:00,
2013-10-31 20:11:00,63.0,58.1,29.89,West,270,3.0,8.0,84,0.00,,,0.01,meteohub,2013-11-01 00:11:00,
2013-10-31 20:16:00,62.8,57.9,29.89,South,180,4.0,8.0,84,0.00,,,0.01,meteohub,2013-11-01 00:16:00,
2013-10-31 20:22:00,62.8,57.9,29.89,NW,315,2.0,8.0,84,0.00,,,0.01,meteohub,2013-11-01 00:22:00,
2013-10-31 20:27:00,62.8,57.9,29.88,NW,315,4.0,5.0,84,0.00,,,0.01,meteohub,2013-11-01 00:27:00,
2013-10-31 20:32:00,62.8,57.9,29.88,WNW,293,3.0,6.0,84,0.00,,,0.01,meteohub,2013-11-01 00:32:00,
2013-10-31 20:37:00,62.6,57.7,29.88,SE,135,2.0,6.0,84,0.00,,,0.01,meteohub,2013-11-01 00:37:00,
2013-10-31 20:42:00,62.6,57.7,29.88,NW,315,4.0,6.0,84,0.00,,,0.01,meteohub,2013-11-01 00:42:00,
2013-10-31 20:47:00,62.6,57.7,29.88,NW,315,2.0,5.0,84,0.00,,,0.01,meteohub,2013-11-01 00:47:00,
2013-10-31 20:52:00,62.6,57.7,29.88,South,180,5.0,6.0,84,0.00,,,0.01,meteohub,2013-11-01 00:52:00,
2013-10-31 20:57:00,62.6,57.7,29.88,West,270,4.0,6.0,84,0.00,,,0.01,meteohub,2013-11-01 00:57:00,
2013-10-31 21:02:00,62.8,57.9,29.87,NE,45,2.0,6.0,84,0.00,,,0.01,meteohub,2013-11-01 01:02:00,
2013-10-31 21:07:00,62.8,57.6,29.87,West,270,2.0,6.0,83,0.00,,,0.01,meteohub,2013-11-01 01:07:00,
2013-10-31 21:12:00,62.6,57.4,29.88,NW,315,4.0,5.0,83,0.00,,,0.01,meteohub,2013-11-01 01:12:00,
2013-10-31 21:17:00,62.6,57.4,29.88,NW,315,4.0,5.0,83,0.00,,,0.01,meteohub,2013-11-01 01:17:00,
2013-10-31 21:22:00,62.6,57.0,29.87,NW,315,4.0,4.0,82,0.00,,,0.01,meteohub,2013-11-01 01:22:00,
2013-10-31 21:27:00,62.6,57.0,29.87,West,270,2.0,4.0,82,0.00,,,0.01,meteohub,2013-11-01 01:27:00,
2013-10-31 21:32:00,62.6,56.7,29.86,North,0,2.0,5.0,81,0.00,,,0.01,meteohub,2013-11-01 01:32:00,
2013-10-31 21:37:00,62.8,56.8,29.87,NW,315,2.0,5.0,81,0.00,,,0.01,meteohub,2013-11-01 01:37:00,
2013-10-31 21:42:00,62.8,56.8,29.86,West,270,3.0,5.0,81,0.00,,,0.01,meteohub,2013-11-01 01:42:00,
2013-10-31 21:47:00,62.6,56.3,29.86,NW,315,4.0,4.0,80,0.00,,,0.01,meteohub,2013-11-01 01:47:00,
2013-10-31 21:52:00,62.8,56.5,29.86,West,270,3.0,5.0,80,0.00,,,0.01,meteohub,2013-11-01 01:52:00,
2013-10-31 21:57:00,62.8,56.5,29.87,NW,315,2.0,5.0,80,0.00,,,0.01,meteohub,2013-11-01 01:57:00,
2013-10-31 22:02:00,62.6,56.7,29.86,SSE,158,3.0,5.0,81,0.00,,,0.01,meteohub,2013-11-01 02:02:00,
2013-10-31 22:07:00,62.6,56.7,29.86,SSE,158,3.0,4.0,81,0.00,,,0.01,meteohub,2013-11-01 02:07:00,
2013-10-31 22:12:00,62.8,56.8,29.86,West,270,2.0,3.0,81,0.00,,,0.01,meteohub,2013-11-01 02:12:00,
2013-10-31 22:17:00,62.6,57.0,29.86,West,270,4.0,7.0,82,0.00,,,0.01,meteohub,2013-11-01 02:17:00,
2013-10-31 22:22:00,62.4,57.2,29.86,South,180,2.0,7.0,83,0.00,,,0.01,meteohub,2013-11-01 02:22:00,
2013-10-31 22:27:00,62.2,57.4,29.86,West,270,3.0,6.0,84,0.00,,,0.01,meteohub,2013-11-01 02:27:00,
2013-10-31 22:32:00,62.2,57.7,29.86,NW,315,4.0,4.0,85,0.00,,,0.01,meteohub,2013-11-01 02:32:00,
2013-10-31 22:37:00,62.1,57.7,29.85,South,180,3.0,4.0,86,0.00,,,0.01,meteohub,2013-11-01 02:37:00,
2013-10-31 22:42:00,61.9,57.9,29.85,West,270,2.0,4.0,87,0.00,,,0.01,meteohub,2013-11-01 02:42:00,
2013-10-31 22:47:00,61.9,58.3,29.84,NW,315,4.0,5.0,88,0.00,,,0.01,meteohub,2013-11-01 02:47:00,
2013-10-31 22:52:00,61.5,58.3,29.83,South,180,2.0,5.0,89,0.00,,,0.01,meteohub,2013-11-01 02:52:00,
2013-10-31 22:57:00,61.5,58.3,29.83,NW,315,2.0,5.0,89,0.00,,,0.01,meteohub,2013-11-01 02:57:00,
2013-10-31 23:02:00,61.3,58.5,29.83,West,270,2.0,4.0,90,0.00,,,0.01,meteohub,2013-11-01 03:02:00,
2013-10-31 23:07:00,61.3,58.6,29.82,West,270,2.0,3.0,91,0.00,,,0.01,meteohub,2013-11-01 03:07:00,
2013-10-31 23:12:00,61.2,58.5,29.82,West,270,2.0,4.0,91,0.00,,,0.01,meteohub,2013-11-01 03:12:00,
2013-10-31 23:17:00,61.2,58.8,29.81,West,270,4.0,4.0,92,0.00,,,0.01,meteohub,2013-11-01 03:17:00,
2013-10-31 23:23:00,61.2,58.8,29.81,WNW,293,3.0,4.0,92,0.00,,,0.01,meteohub,2013-11-01 03:23:00,
2013-10-31 23:28:00,61.3,59.4,29.80,West,270,2.0,4.0,93,0.00,,,0.01,meteohub,2013-11-01 03:28:00,
2013-10-31 23:33:00,61.3,59.4,29.80,West,270,3.0,4.0,93,0.00,,,0.01,meteohub,2013-11-01 03:33:00,
2013-10-31 23:38:00,61.3,59.5,29.79,South,180,5.0,5.0,94,0.00,,,0.01,meteohub,2013-11-01 03:38:00,
2013-10-31 23:43:00,61.5,59.7,29.78,South,180,8.0,8.0,94,0.00,,,0.01,meteohub,2013-11-01 03:43:00,
2013-10-31 23:48:00,61.7,59.9,29.78,NW,315,3.0,7.0,94,0.00,,,0.01,meteohub,2013-11-01 03:48:00,
2013-10-31 23:53:00,61.7,60.3,29.77,WNW,293,3.0,8.0,95,0.00,,,0.01,meteohub,2013-11-01 03:53:00,
2013-10-31 23:58:00,61.7,60.3,29.77,NW,315,4.0,8.0,95,0.00,,,0.01,meteohub,2013-11-01 03:58:00,